Time;durP1;ratioP1;P1;durP2;ratioP2;P2;SDS_P1;SDS_P2;PMS_P1;PMS_P2;Temp;Humidity;BMP_temperature;BMP_pressure;BME280_temperature;BME280_humidity;BME280_pressure;Samples;Min_cycle;Max_cycle;Signal;HPM_P1;HPM_P2
2021/08/13 00:06:57;;;;;;;10.45;7.47;;;;;;;19.96;73.60;100723.22;20747536;28;20049;-71
2021/08/13 00:16:59;;;;;;;11.48;7.68;;;;;;;20.02;73.86;100720.25;20745482;28;20045;-71
2021/08/13 00:27:01;;;;;;;11.98;8.05;;;;;;;20.17;73.61;100723.94;20747605;28;20046;-71
2021/08/13 00:37:03;;;;;;;13.23;8.30;;;;;;;20.06;74.77;100721.81;20745472;28;20104;-71
2021/08/13 00:47:05;;;;;;;10.30;7.15;;;;;;;19.82;74.97;100744.28;20745863;28;20050;-71
2021/08/13 00:57:07;;;;;;;15.00;8.48;;;;;;;19.65;75.70;100743.31;20741837;28;20041;-71
2021/08/13 01:07:09;;;;;;;12.65;8.23;;;;;;;19.81;75.27;100742.56;20740790;28;20045;-71
2021/08/13 01:17:14;;;;;;;14.50;8.20;;;;;;;20.11;74.38;100751.69;20744133;28;20115;-71
2021/08/13 01:27:20;;;;;;;17.40;9.30;;;;;;;19.95;73.85;100737.44;20742439;28;20046;-71
2021/08/13 01:37:23;;;;;;;14.93;9.02;;;;;;;19.97;73.87;100746.19;20741694;28;20116;-71
2021/08/13 01:47:28;;;;;;;11.73;7.93;;;;;;;19.90;73.04;100740.34;20743910;28;20065;-71
2021/08/13 01:57:31;;;;;;;13.93;8.88;;;;;;;19.69;73.69;100742.25;20765863;28;20088;-72
2021/08/13 02:07:37;;;;;;;11.53;7.70;;;;;;;19.46;74.94;100745.09;20750496;28;20058;-71
2021/08/13 02:17:47;;;;;;;11.57;8.02;;;;;;;19.52;74.65;100735.97;20738442;28;20041;-71
2021/08/13 02:27:51;;;;;;;12.65;7.82;;;;;;;19.69;73.56;100723.66;20738463;28;20075;-70
2021/08/13 02:38:10;;;;;;;14.52;9.18;;;;;;;19.56;77.45;100745.53;20737597;28;20050;-72
2021/08/13 02:48:14;;;;;;;18.13;9.90;;;;;;;19.41;82.24;100771.00;20753329;28;20455;-68
2021/08/13 02:58:19;;;;;;;14.95;9.27;;;;;;;19.26;85.10;100784.97;20752876;28;20045;-71
2021/08/13 03:08:21;;;;;;;18.88;10.52;;;;;;;18.71;86.36;100809.50;20751786;28;20053;-72
2021/08/13 03:18:23;;;;;;;16.55;10.40;;;;;;;18.45;84.90;100826.50;20759413;28;20080;-72
2021/08/13 03:28:25;;;;;;;16.08;9.95;;;;;;;18.67;84.93;100806.09;20766482;28;20054;-72
2021/08/13 03:38:27;;;;;;;16.80;10.57;;;;;;;18.44;85.92;100828.28;20752728;28;20086;-72
2021/08/13 03:48:29;;;;;;;14.00;9.25;;;;;;;18.47;85.81;100824.63;20749420;28;20046;-72
2021/08/13 03:58:31;;;;;;;12.55;9.32;;;;;;;18.65;87.10;100793.84;20747223;28;20464;-73
2021/08/13 04:08:33;;;;;;;15.85;10.90;;;;;;;18.75;87.33;100796.97;20746710;28;20054;-72
2021/08/13 04:18:35;;;;;;;15.10;9.65;;;;;;;18.78;87.33;100810.09;20729629;28;20053;-72
2021/08/13 04:28:37;;;;;;;15.27;10.48;;;;;;;18.96;87.86;100820.78;20746605;28;20092;-72
2021/08/13 04:38:38;;;;;;;14.70;9.65;;;;;;;18.99;88.24;100821.59;20744642;28;20054;-72
2021/08/13 04:48:40;;;;;;;15.23;10.63;;;;;;;18.91;88.57;100824.56;20745319;28;20554;-72
2021/08/13 04:58:42;;;;;;;15.10;10.93;;;;;;;18.79;87.92;100835.72;20744267;28;20478;-72
2021/08/13 05:08:44;;;;;;;15.57;10.77;;;;;;;18.81;88.85;100845.31;20741518;28;20096;-72
2021/08/13 05:18:47;;;;;;;15.00;10.68;;;;;;;18.60;89.46;100841.78;20742134;28;20484;-72
2021/08/13 05:28:49;;;;;;;17.55;11.57;;;;;;;19.05;88.60;100837.22;20740422;28;20477;-71
2021/08/13 05:38:51;;;;;;;18.70;11.10;;;;;;;19.42;87.62;100847.94;20741080;28;20046;-71
2021/08/13 05:48:57;;;;;;;17.70;11.52;;;;;;;19.69;87.10;100853.84;20741602;28;20555;-72
2021/08/13 05:59:00;;;;;;;17.33;11.00;;;;;;;19.88;86.31;100864.47;20740862;28;20349;-71
2021/08/13 06:09:03;;;;;;;16.95;11.60;;;;;;;20.18;84.63;100869.25;20739592;28;20053;-71
2021/08/13 06:19:05;;;;;;;17.65;11.52;;;;;;;20.25;83.51;100866.22;20739481;28;20050;-71
2021/08/13 06:29:06;;;;;;;18.25;11.23;;;;;;;20.45;83.86;100864.38;20746346;28;20048;-71
2021/08/13 06:39:08;;;;;;;15.93;10.70;;;;;;;20.59;83.88;100880.53;20746218;28;20042;-71
2021/08/13 06:49:10;;;;;;;17.77;12.00;;;;;;;20.69;84.11;100881.81;20738483;28;20163;-71
2021/08/13 06:59:12;;;;;;;20.83;13.10;;;;;;;20.84;82.90;100881.97;20738109;28;20049;-71
2021/08/13 07:09:14;;;;;;;19.52;11.70;;;;;;;21.23;81.59;100893.25;20712795;28;20054;-71
2021/08/13 07:19:16;;;;;;;19.23;12.32;;;;;;;21.50;80.24;100882.09;20725243;28;20047;-71
2021/08/13 07:29:18;;;;;;;16.40;10.82;;;;;;;22.06;79.67;100898.63;20662727;28;20109;-71
2021/08/13 07:39:19;;;;;;;17.08;11.60;;;;;;;22.45;76.24;100890.22;20698013;28;20042;-71
2021/08/13 07:49:21;;;;;;;14.13;10.40;;;;;;;22.79;76.24;100902.44;20750302;28;20500;-71
2021/08/13 07:59:23;;;;;;;15.55;10.73;;;;;;;23.22;73.64;100908.81;20749536;28;20101;-71
2021/08/13 08:09:25;;;;;;;16.70;10.43;;;;;;;23.75;71.64;100906.50;20748328;28;20088;-71
2021/08/13 08:19:27;;;;;;;12.43;9.88;;;;;;;23.91;70.82;100920.63;20670781;28;20042;-71
2021/08/13 08:29:29;;;;;;;13.70;10.90;;;;;;;23.77;71.57;100921.50;20666360;28;20043;-71
2021/08/13 08:39:31;;;;;;;18.00;10.63;;;;;;;24.40;70.26;100935.41;20664291;28;20097;-71
2021/08/13 08:49:35;;;;;;;17.73;10.27;;;;;;;24.75;67.87;100931.25;20664465;28;20054;-71
2021/08/13 08:59:37;;;;;;;15.07;10.20;;;;;;;25.14;67.02;100916.16;20663730;28;20097;-71
2021/08/13 09:09:39;;;;;;;14.05;9.05;;;;;;;25.46;64.13;100929.16;20662879;28;20101;-71
2021/08/13 09:19:48;;;;;;;12.13;7.80;;;;;;;25.76;63.90;100924.34;20740699;28;20062;-71
2021/08/13 09:30:12;;;;;;;11.68;8.30;;;;;;;26.30;61.55;100923.16;20742564;28;20194;-71
2021/08/13 09:40:15;;;;;;;17.83;8.15;;;;;;;26.47;62.12;100924.66;20742216;28;20100;-71
2021/08/13 09:50:31;;;;;;;12.02;7.75;;;;;;;26.56;60.73;100918.59;20741311;28;20116;-72
2021/08/13 10:00:47;;;;;;;14.27;7.43;;;;;;;27.14;58.93;100924.97;20738831;28;20511;-71
2021/08/13 10:10:49;;;;;;;12.88;7.70;;;;;;;26.95;59.50;100924.63;20732988;28;20054;-72
2021/08/13 10:20:53;;;;;;;12.95;8.00;;;;;;;27.54;58.89;100913.78;20659688;28;20457;-71
2021/08/13 10:30:55;;;;;;;;;;;;;;;27.73;58.36;100911.38;20659471;28;20046;-71
2021/08/13 10:40:57;;;;;;;14.63;8.13;;;;;;;27.47;59.28;100907.19;20659800;28;19928;-71
2021/08/13 10:51:00;;;;;;;14.82;7.78;;;;;;;28.28;58.57;100898.84;20660185;28;20063;-71
2021/08/13 11:01:20;;;;;;;12.52;7.88;;;;;;;28.17;58.37;100904.28;20661656;28;20120;-71
2021/08/13 11:11:23;;;;;;;10.48;7.28;;;;;;;28.70;57.29;100893.63;20687795;28;20090;-72
2021/08/13 11:21:33;;;;;;;10.50;7.00;;;;;;;28.60;57.56;100903.44;20753974;28;20046;-71
2021/08/13 11:31:51;;;;;;;11.90;6.80;;;;;;;29.08;55.00;100897.59;20751529;28;20567;-71
2021/08/13 11:41:53;;;;;;;11.77;7.28;;;;;;;28.98;55.29;100885.91;20751231;28;20046;-71
2021/08/13 11:51:55;;;;;;;11.13;6.83;;;;;;;29.15;55.51;100890.72;20731958;28;20050;-71
2021/08/13 12:01:57;;;;;;;12.05;7.28;;;;;;;29.47;53.54;100873.59;20748982;28;20050;-69
2021/08/13 12:12:00;;;;;;;15.63;7.30;;;;;;;29.22;53.63;100881.09;20729874;28;20077;-69
2021/08/13 12:22:05;;;;;;;15.23;7.35;;;;;;;29.57;53.03;100879.91;20666311;28;20068;-69
2021/08/13 12:32:08;;;;;;;9.07;6.90;;;;;;;29.60;51.03;100874.22;20663277;28;20057;-69
2021/08/13 12:42:13;;;;;;;14.98;7.03;;;;;;;29.63;50.77;100884.75;20663152;28;20124;-68
2021/08/13 12:52:24;;;;;;;11.70;7.10;;;;;;;29.59;50.68;100875.22;20663557;28;20050;-71
2021/08/13 13:02:28;;;;;;;10.00;6.70;;;;;;;29.80;49.83;100881.44;20665267;28;20105;-71
2021/08/13 13:12:31;;;;;;;11.85;7.18;;;;;;;30.08;48.21;100881.63;20682058;28;20046;-69
2021/08/13 13:22:32;;;;;;;13.13;7.57;;;;;;;29.85;48.59;100879.16;20742506;28;20045;-70
2021/08/13 13:32:34;;;;;;;12.83;6.83;;;;;;;30.24;46.78;100867.63;20742052;28;20042;-71
2021/08/13 13:42:36;;;;;;;10.05;6.97;;;;;;;30.32;44.03;100860.50;20741271;28;20116;-71
2021/08/13 13:52:39;;;;;;;12.13;7.20;;;;;;;30.32;43.18;100856.97;20723772;28;20053;-70
2021/08/13 14:02:43;;;;;;;13.13;6.27;;;;;;;30.38;42.12;100843.75;20739832;28;20072;-71
2021/08/13 14:12:47;;;;;;;11.00;5.63;;;;;;;30.43;39.59;100839.78;20738956;28;20057;-70
2021/08/13 14:22:50;;;;;;;9.93;5.47;;;;;;;30.27;42.07;100830.38;20738768;28;20049;-70
2021/08/13 14:32:51;;;;;;;15.33;5.77;;;;;;;30.48;41.88;100837.50;20738123;28;20104;-70
2021/08/13 14:42:54;;;;;;;15.02;5.50;;;;;;;30.46;42.07;100826.81;20737767;28;20373;-70
2021/08/13 14:52:56;;;;;;;11.27;5.80;;;;;;;30.35;41.27;100829.69;20737342;28;20050;-70
2021/08/13 15:02:57;;;;;;;10.60;5.93;;;;;;;30.21;42.29;100817.44;20736998;28;20050;-70
2021/08/13 15:13:00;;;;;;;10.73;5.80;;;;;;;30.25;42.92;100832.38;20712190;28;20057;-71
2021/08/13 15:23:04;;;;;;;13.45;6.03;;;;;;;29.95;42.61;100829.75;20655475;28;20447;-70
2021/08/13 15:33:06;;;;;;;9.00;5.55;;;;;;;29.84;40.48;100823.44;20654134;28;20097;-71
2021/08/13 15:43:08;;;;;;;7.95;4.22;;;;;;;29.76;36.94;100823.28;20655159;28;20061;-71
2021/08/13 15:53:12;;;;;;;9.63;4.78;;;;;;;29.90;35.88;100825.59;20666160;28;20617;-70
2021/08/13 16:03:14;;;;;;;8.27;4.70;;;;;;;29.95;37.49;100818.94;20667385;28;20046;-70
2021/08/13 16:13:16;;;;;;;7.73;5.13;;;;;;;29.97;38.32;100822.34;20692441;28;20042;-70
2021/08/13 16:23:18;;;;;;;10.05;4.80;;;;;;;29.84;36.89;100818.03;20747387;28;20046;-71
2021/08/13 16:33:20;;;;;;;11.73;5.23;;;;;;;29.75;39.57;100821.59;20746012;28;20042;-70
2021/08/13 16:43:22;;;;;;;8.88;5.57;;;;;;;29.42;41.02;100829.94;20745864;28;20069;-70
2021/08/13 16:53:25;;;;;;;18.10;5.43;;;;;;;29.53;41.58;100819.91;20744967;28;20058;-71
2021/08/13 17:03:27;;;;;;;8.27;5.28;;;;;;;29.42;42.41;100824.53;20725740;28;20104;-70
2021/08/13 17:13:29;;;;;;;9.88;5.88;;;;;;;29.09;42.55;100821.97;20713907;28;20085;-70
2021/08/13 17:23:31;;;;;;;8.82;5.63;;;;;;;28.93;43.81;100836.88;20661365;28;20409;-70
2021/08/13 17:33:33;;;;;;;8.65;5.32;;;;;;;28.77;44.40;100832.81;20660045;28;20101;-71
2021/08/13 17:43:39;;;;;;;10.98;5.03;;;;;;;28.58;45.02;100841.59;20660188;28;20046;-70
2021/08/13 17:53:41;;;;;;;7.00;4.90;;;;;;;28.32;45.79;100843.75;20659009;28;20054;-70
2021/08/13 18:03:43;;;;;;;8.23;4.88;;;;;;;27.98;46.80;100844.81;20658267;28;20081;-70
2021/08/13 18:13:46;;;;;;;9.50;5.33;;;;;;;27.48;48.31;100849.72;20686632;28;20466;-70
2021/08/13 18:23:48;;;;;;;12.38;5.57;;;;;;;27.05;48.65;100855.75;20738923;28;20446;-71
2021/08/13 18:33:50;;;;;;;9.38;5.65;;;;;;;26.75;50.58;100867.03;20736938;28;20042;-71
2021/08/13 18:43:52;;;;;;;11.30;5.55;;;;;;;26.22;52.76;100877.25;20737500;28;20057;-71
2021/08/13 18:53:54;;;;;;;9.75;6.00;;;;;;;25.76;54.38;100892.16;20738064;28;20058;-70
2021/08/13 19:03:56;;;;;;;9.18;5.53;;;;;;;25.44;55.88;100906.94;20738956;28;20057;-70
2021/08/13 19:13:58;;;;;;;9.27;6.18;;;;;;;25.25;56.40;100907.41;20737986;28;20115;-70
2021/08/13 19:24:01;;;;;;;10.15;7.20;;;;;;;24.97;59.25;100917.28;20745188;28;20496;-70
2021/08/13 19:34:03;;;;;;;11.73;6.40;;;;;;;24.64;60.09;100927.56;20753310;28;20053;-70
2021/08/13 19:44:05;;;;;;;11.20;5.70;;;;;;;24.19;62.98;100935.75;20753937;28;20065;-70
2021/08/13 19:54:07;;;;;;;8.98;6.50;;;;;;;23.83;64.81;100946.13;20749409;28;20054;-70
2021/08/13 20:04:09;;;;;;;9.20;6.40;;;;;;;23.62;65.33;100954.50;20748798;28;20695;-71
2021/08/13 20:14:11;;;;;;;8.80;5.95;;;;;;;23.36;66.35;100949.88;20713549;28;20055;-70
2021/08/13 20:24:13;;;;;;;10.25;6.78;;;;;;;22.99;68.23;100958.25;20666259;28;20046;-71
2021/08/13 20:34:15;;;;;;;10.27;6.13;;;;;;;22.79;69.44;100963.84;20664149;28;20050;-71
2021/08/13 20:44:17;;;;;;;11.90;6.60;;;;;;;22.60;70.48;100964.06;20664651;28;20097;-71
2021/08/13 20:54:19;;;;;;;12.15;7.53;;;;;;;22.49;69.63;100966.47;20664614;28;20456;-71
2021/08/13 21:04:21;;;;;;;10.63;7.18;;;;;;;22.38;70.24;100953.75;20661685;28;20548;-71
2021/08/13 21:14:22;;;;;;;11.25;7.57;;;;;;;22.28;68.65;100958.72;20696527;28;20053;-70
2021/08/13 21:24:24;;;;;;;11.10;6.82;;;;;;;22.22;68.73;100959.06;20742619;28;20050;-71
2021/08/13 21:34:26;;;;;;;11.48;7.13;;;;;;;22.11;69.39;100960.56;20741504;28;20041;-71
2021/08/13 21:44:28;;;;;;;10.35;7.40;;;;;;;21.92;70.59;100971.38;20741241;28;20042;-71
2021/08/13 21:54:30;;;;;;;13.07;7.18;;;;;;;21.64;71.92;100972.84;20740620;28;20046;-71
2021/08/13 22:04:32;;;;;;;11.68;7.57;;;;;;;21.60;72.25;100978.41;20739189;28;20421;-71
2021/08/13 22:14:33;;;;;;;10.35;7.13;;;;;;;21.31;73.18;100985.25;20737996;28;20165;-71
2021/08/13 22:24:35;;;;;;;11.68;7.90;;;;;;;21.19;73.90;100989.38;20736557;28;20104;-70
2021/08/13 22:34:37;;;;;;;11.95;7.88;;;;;;;21.07;74.24;100977.50;20736613;28;20038;-71
2021/08/13 22:44:39;;;;;;;12.38;7.60;;;;;;;20.96;74.53;100993.16;20736373;28;20514;-71
2021/08/13 22:54:41;;;;;;;11.68;7.95;;;;;;;20.69;76.13;100993.56;20736158;28;20470;-71
2021/08/13 23:04:43;;;;;;;13.80;8.73;;;;;;;20.56;76.63;101008.41;20750807;28;20042;-72
2021/08/13 23:14:44;;;;;;;12.38;8.65;;;;;;;20.43;77.48;101000.13;20750886;28;20065;-71
2021/08/13 23:24:46;;;;;;;14.10;9.30;;;;;;;20.28;78.20;101008.81;20750471;28;20459;-71
2021/08/13 23:34:48;;;;;;;12.38;8.63;;;;;;;20.01;78.88;100997.63;20748779;28;20041;-71
2021/08/13 23:44:50;;;;;;;11.02;8.40;;;;;;;19.92;78.11;101001.56;20747794;28;20046;-70
2021/08/13 23:54:52;;;;;;;11.98;7.82;;;;;;;19.75;78.95;101013.91;20749942;28;20104;-70
